createdAt,value
2022-12-06T00:00:31.031Z,101637.91
2022-12-06T00:03:00.084Z,101642.81
2022-12-06T00:05:29.566Z,101598.47
2022-12-06T00:07:59.255Z,101642.47
2022-12-06T00:10:28.698Z,101638.91
2022-12-06T00:12:58.065Z,101641.00
2022-12-06T00:15:27.325Z,101611.94
2022-12-06T00:17:58.515Z,101623.59
2022-12-06T00:20:27.722Z,101629.34
2022-12-06T00:22:56.945Z,101630.97
2022-12-06T00:25:26.454Z,101625.66
2022-12-06T00:27:55.574Z,101626.41
2022-12-06T00:30:24.974Z,101625.38
2022-12-06T00:32:54.150Z,101616.81
2022-12-06T00:35:30.709Z,101619.31
2022-12-06T00:38:00.180Z,101620.63
2022-12-06T00:40:29.555Z,101621.50
2022-12-06T00:42:58.941Z,101605.88
2022-12-06T00:45:28.317Z,101584.53
2022-12-06T00:47:57.682Z,101607.81
2022-12-06T00:50:27.018Z,101604.09
2022-12-06T00:52:58.807Z,101602.94
2022-12-06T00:55:29.201Z,101581.72
2022-12-06T00:57:58.638Z,101595.88
2022-12-06T01:00:32.973Z,101598.22
2022-12-06T01:03:02.758Z,101592.03
2022-12-06T01:05:32.326Z,101598.19
2022-12-06T01:08:04.885Z,101582.56
2022-12-06T01:10:34.383Z,101585.78
2022-12-06T01:13:03.835Z,101579.47
2022-12-06T01:15:33.078Z,101588.59
2022-12-06T01:18:02.335Z,101516.47
2022-12-06T01:20:31.526Z,101581.38
2022-12-06T01:23:01.007Z,101574.94
2022-12-06T01:25:35.768Z,101567.72
2022-12-06T01:28:12.056Z,101575.13
2022-12-06T01:30:41.906Z,101574.84
2022-12-06T01:33:11.243Z,101569.72
2022-12-06T01:35:42.389Z,101560.88
2022-12-06T01:38:12.489Z,101567.09
2022-12-06T01:43:35.183Z,101547.53
2022-12-06T01:46:12.885Z,101560.47
2022-12-06T01:48:43.719Z,101555.03
2022-12-06T01:51:17.645Z,101545.88
2022-12-06T01:53:49.248Z,101546.78
2022-12-06T01:56:21.543Z,101549.44
2022-12-06T01:58:58.732Z,101547.97
2022-12-06T02:01:35.230Z,101555.06
2022-12-06T02:04:06.168Z,101548.44
2022-12-06T02:06:41.833Z,101542.13
2022-12-06T02:09:12.963Z,101547.41
2022-12-06T02:11:46.934Z,101546.66
2022-12-06T02:14:20.200Z,101538.84
2022-12-06T02:17:09.341Z,101522.50
2022-12-06T02:19:59.727Z,101526.91
2022-12-06T02:22:38.756Z,101525.88
2022-12-06T02:25:41.984Z,101517.19
2022-12-06T02:28:35.139Z,101521.16
2022-12-06T02:31:13.006Z,101512.34
2022-12-06T02:33:49.133Z,101513.94
2022-12-06T02:36:24.529Z,101520.88
2022-12-06T02:39:02.424Z,101516.59
2022-12-06T02:41:37.612Z,101520.72
2022-12-06T02:44:10.331Z,101510.28
2022-12-06T02:46:43.362Z,101516.72
2022-12-06T02:49:15.737Z,101517.19
2022-12-06T02:51:49.058Z,101510.84
2022-12-06T02:54:24.432Z,101512.31
2022-12-06T02:56:53.511Z,101519.38
2022-12-06T02:59:27.833Z,101512.63
2022-12-06T03:02:03.470Z,101505.81
2022-12-06T03:04:49.354Z,101509.97
2022-12-06T03:07:30.278Z,101508.75
2022-12-06T03:10:11.870Z,101492.09
2022-12-06T03:12:51.564Z,101491.50
2022-12-06T03:15:28.636Z,101492.28
2022-12-06T03:18:05.903Z,101470.03
2022-12-06T03:20:46.580Z,101489.00
2022-12-06T03:23:18.596Z,101494.47
2022-12-06T03:25:49.071Z,101488.16
2022-12-06T03:28:20.497Z,101495.38
2022-12-06T03:30:59.920Z,101494.31
2022-12-06T03:33:34.738Z,101492.41
2022-12-06T03:36:05.085Z,101480.63
2022-12-06T03:38:39.321Z,101481.78
2022-12-06T03:41:11.425Z,101475.03
2022-12-06T03:43:40.724Z,101471.03
2022-12-06T03:46:20.951Z,101465.28
2022-12-06T03:48:57.536Z,101471.47
2022-12-06T03:51:30.895Z,101463.34
2022-12-06T03:54:02.639Z,101456.84
2022-12-06T03:56:36.347Z,101461.88
2022-12-06T03:59:05.877Z,101428.91
2022-12-06T04:01:40.287Z,101458.06
2022-12-06T04:04:12.435Z,101426.25
2022-12-06T04:06:41.719Z,101456.72
2022-12-06T04:09:23.780Z,101455.88
2022-12-06T04:11:58.221Z,101447.75
2022-12-06T04:14:31.912Z,101444.84
2022-12-06T04:17:14.170Z,101437.06
2022-12-06T04:19:52.305Z,101442.47
2022-12-06T04:22:34.601Z,101441.56
2022-12-06T04:25:03.954Z,101424.66
2022-12-06T04:27:46.087Z,101444.44
2022-12-06T04:30:28.438Z,101445.31
2022-12-06T04:33:15.565Z,101444.88
2022-12-06T04:35:59.658Z,101443.66
2022-12-06T04:38:49.384Z,101445.28
2022-12-06T04:41:39.072Z,101440.72
2022-12-06T04:44:07.924Z,101428.34
2022-12-06T04:46:42.173Z,101427.16
2022-12-06T04:49:11.693Z,101437.63
2022-12-06T04:51:42.812Z,101426.41
2022-12-06T04:56:55.013Z,101434.38
2022-12-06T04:59:24.265Z,101442.19
2022-12-06T05:01:59.223Z,101447.75
2022-12-06T05:04:28.511Z,101440.97
2022-12-06T05:06:59.827Z,101431.41
2022-12-06T05:09:36.456Z,101450.41
2022-12-06T05:12:06.158Z,101443.06
2022-12-06T05:14:35.445Z,101435.97
2022-12-06T05:17:04.877Z,101446.00
2022-12-06T05:19:34.141Z,101444.69
2022-12-06T05:22:05.565Z,101418.59
2022-12-06T05:24:35.120Z,101434.69
2022-12-06T05:27:18.323Z,101432.03
2022-12-06T05:29:47.620Z,101432.75
2022-12-06T05:32:16.923Z,101406.84
2022-12-06T05:34:46.401Z,101430.41
2022-12-06T05:37:17.730Z,101424.66
2022-12-06T05:39:52.343Z,101423.63
2022-12-06T05:42:22.580Z,101426.41
2022-12-06T05:44:57.082Z,101389.31
2022-12-06T05:47:31.561Z,101410.97
2022-12-06T05:50:01.213Z,101398.28
2022-12-06T05:52:32.881Z,101342.34
2022-12-06T05:55:02.344Z,101418.03
2022-12-06T05:57:32.311Z,101420.38
2022-12-06T06:00:01.814Z,101404.50
2022-12-06T06:02:35.949Z,101405.66
2022-12-06T06:05:15.790Z,101423.06
2022-12-06T06:07:47.136Z,101423.19
2022-12-06T06:10:19.405Z,101416.13
2022-12-06T06:12:48.628Z,101416.88
2022-12-06T06:15:18.281Z,101392.88
2022-12-06T06:17:47.649Z,101416.28
2022-12-06T06:20:16.831Z,101400.66
2022-12-06T06:22:48.046Z,101413.03
2022-12-06T06:25:17.348Z,101412.31
2022-12-06T06:27:49.781Z,101413.03
2022-12-06T06:30:20.134Z,101404.78
2022-12-06T06:32:50.123Z,101410.09
2022-12-06T06:35:19.372Z,101383.28
2022-12-06T06:37:55.561Z,101397.25
2022-12-06T06:40:25.086Z,101407.84
2022-12-06T06:42:54.231Z,101413.84
2022-12-06T06:45:28.426Z,101404.75
2022-12-06T06:48:03.422Z,101416.22
2022-12-06T06:50:33.003Z,101413.72
2022-12-06T06:53:04.296Z,101415.78
2022-12-06T06:55:38.629Z,101403.56
2022-12-06T06:58:07.930Z,101418.28
2022-12-06T07:00:37.622Z,101420.94
2022-12-06T07:03:14.278Z,101414.88
2022-12-06T07:05:44.272Z,101413.81
2022-12-06T07:08:15.884Z,101421.47
2022-12-06T07:10:48.250Z,101419.69
2022-12-06T07:13:17.567Z,101404.66
2022-12-06T07:15:50.287Z,101401.81
2022-12-06T07:18:31.318Z,101410.59
2022-12-06T07:21:08.409Z,101401.09
2022-12-06T07:23:39.686Z,101398.00
2022-12-06T07:26:11.854Z,101408.47
2022-12-06T07:28:42.959Z,101409.59
2022-12-06T07:31:18.609Z,101409.16
2022-12-06T07:33:54.125Z,101408.38
2022-12-06T07:36:23.947Z,101398.84
2022-12-06T07:38:56.937Z,101398.25
2022-12-06T07:41:42.137Z,101410.28
2022-12-06T07:44:33.542Z,101420.13
2022-12-06T07:47:03.549Z,101390.63
2022-12-06T07:49:32.947Z,101408.28
2022-12-06T07:52:08.539Z,101408.00
2022-12-06T07:54:41.617Z,101416.78
2022-12-06T07:57:10.866Z,101407.53
2022-12-06T07:59:41.362Z,101419.50
2022-12-06T08:02:20.176Z,101414.66
2022-12-06T08:04:49.676Z,101401.88
2022-12-06T08:07:18.953Z,101410.16
2022-12-06T08:09:56.220Z,101394.53
2022-12-06T08:12:25.854Z,101370.44
2022-12-06T08:14:59.445Z,101400.88
2022-12-06T08:17:30.048Z,101401.88
2022-12-06T08:19:59.617Z,101391.53
2022-12-06T08:22:29.871Z,101396.69
2022-12-06T08:25:01.359Z,101386.50
2022-12-06T08:27:32.749Z,101385.78
2022-12-06T08:30:07.087Z,101384.88
2022-12-06T08:32:37.452Z,101369.47
2022-12-06T08:35:07.329Z,101383.06
2022-12-06T08:37:36.549Z,101379.19
2022-12-06T08:40:09.607Z,101370.59
2022-12-06T08:42:38.850Z,101366.38
2022-12-06T08:45:09.157Z,101364.78
2022-12-06T08:47:38.462Z,101325.34
2022-12-06T08:50:09.230Z,101363.56
2022-12-06T08:52:38.582Z,101362.00
2022-12-06T08:55:10.628Z,101359.66
2022-12-06T08:57:40.157Z,101355.75
2022-12-06T09:00:11.475Z,101357.94
2022-12-06T09:02:41.183Z,101342.16
2022-12-06T09:05:11.459Z,101345.94
2022-12-06T09:07:40.836Z,101351.06
2022-12-06T09:10:13.717Z,101342.88
2022-12-06T09:12:47.998Z,101330.59
2022-12-06T09:15:17.387Z,101341.69
2022-12-06T09:17:46.599Z,101346.25
2022-12-06T09:20:17.776Z,101338.59
2022-12-06T09:22:47.156Z,101335.25
2022-12-06T09:25:19.208Z,101335.78
2022-12-06T09:27:50.064Z,101326.59
2022-12-06T09:30:19.518Z,101298.66
2022-12-06T09:32:49.019Z,101335.81
2022-12-06T09:35:25.309Z,101333.81
2022-12-06T09:37:54.942Z,101336.59
2022-12-06T09:40:37.372Z,101327.09
2022-12-06T09:43:30.664Z,101320.06
2022-12-06T09:46:21.892Z,101314.56
2022-12-06T09:49:10.435Z,101318.81
2022-12-06T09:51:55.179Z,101307.13
2022-12-06T09:54:38.538Z,101287.63
2022-12-06T09:57:23.316Z,101305.53
2022-12-06T10:00:06.347Z,101297.59
2022-12-06T10:05:57.666Z,101300.88
2022-12-06T10:08:41.804Z,101229.78
2022-12-06T10:11:22.305Z,101288.19
2022-12-06T10:14:03.932Z,101288.97
2022-12-06T10:16:46.647Z,101282.44
2022-12-06T10:19:27.599Z,101277.16
2022-12-06T10:22:08.975Z,101262.06
2022-12-06T10:24:51.183Z,101273.78
2022-12-06T10:27:28.206Z,101280.31
2022-12-06T10:30:03.546Z,101273.38
2022-12-06T10:32:57.207Z,101261.97
2022-12-06T10:35:43.070Z,101274.28
2022-12-06T10:38:29.798Z,101266.88
2022-12-06T10:41:22.128Z,101255.78
2022-12-06T10:44:04.030Z,101253.25
2022-12-06T10:46:54.912Z,101257.53
2022-12-06T10:49:34.191Z,101217.41
2022-12-06T10:52:11.853Z,101245.97
2022-12-06T10:54:45.756Z,101226.34
2022-12-06T10:57:21.127Z,101251.38
2022-12-06T11:00:03.216Z,101240.28
2022-12-06T11:02:54.177Z,101254.00
2022-12-06T11:05:29.427Z,101250.34
2022-12-06T11:08:06.333Z,101241.16
2022-12-06T11:10:37.235Z,101229.84
2022-12-06T11:13:21.145Z,101231.84
2022-12-06T11:15:55.011Z,101229.84
2022-12-06T11:18:30.552Z,101240.16
2022-12-06T11:21:05.783Z,101232.47
2022-12-06T11:23:45.135Z,101237.63
2022-12-06T11:26:22.537Z,101240.91
2022-12-06T11:29:04.651Z,101218.53
2022-12-06T11:31:38.459Z,101235.88
2022-12-06T11:34:18.151Z,101231.81
2022-12-06T11:36:55.257Z,101238.63
2022-12-06T11:39:28.816Z,101230.59
2022-12-06T11:42:01.238Z,101233.84
2022-12-06T11:44:44.857Z,101224.53
2022-12-06T11:47:21.304Z,101233.22
2022-12-06T11:49:55.825Z,101222.25
2022-12-06T11:52:32.357Z,101218.47
2022-12-06T11:55:04.817Z,101215.56
2022-12-06T11:57:39.371Z,101195.44
2022-12-06T12:00:14.229Z,101197.56
2022-12-06T12:02:45.704Z,101213.38
2022-12-06T12:05:25.064Z,101204.66
2022-12-06T12:08:02.314Z,101215.97
2022-12-06T12:10:43.644Z,101172.50
2022-12-06T12:13:34.788Z,101201.81
2022-12-06T12:16:09.285Z,101204.75
2022-12-06T12:18:42.315Z,101201.72
2022-12-06T12:21:13.815Z,101214.84
2022-12-06T12:23:46.663Z,101192.22
2022-12-06T12:26:18.312Z,101211.09
2022-12-06T12:29:03.537Z,101170.41
2022-12-06T12:31:33.248Z,101203.94
2022-12-06T12:34:19.671Z,101204.56
2022-12-06T12:36:58.762Z,101203.34
2022-12-06T12:39:33.807Z,101205.50
2022-12-06T12:42:09.433Z,101176.50
2022-12-06T12:44:41.109Z,101213.72
2022-12-06T12:47:18.338Z,101215.72
2022-12-06T12:58:00.468Z,101215.28
2022-12-06T13:00:33.821Z,101208.75
2022-12-06T13:03:18.061Z,101210.38
2022-12-06T13:05:57.747Z,101209.38
2022-12-06T13:08:32.334Z,101211.28
2022-12-06T13:11:07.177Z,101191.16
2022-12-06T13:13:41.674Z,101198.44
2022-12-06T13:16:16.612Z,101208.50
2022-12-06T13:18:48.867Z,101206.97
2022-12-06T13:21:23.397Z,101204.59
2022-12-06T13:23:57.368Z,101199.56
2022-12-06T13:26:34.448Z,101203.72
2022-12-06T13:29:23.043Z,101202.19
2022-12-06T13:31:58.898Z,101207.47
2022-12-06T13:34:37.845Z,101206.84
2022-12-06T13:37:28.889Z,101209.72
2022-12-06T13:40:04.403Z,101195.91
2022-12-06T13:42:47.512Z,101197.66
2022-12-06T13:45:45.160Z,101194.88
2022-12-06T13:48:54.609Z,101190.09
2022-12-06T13:51:46.402Z,101191.38
2022-12-06T13:54:36.306Z,101192.34
2022-12-06T13:57:30.597Z,101194.38
2022-12-06T14:00:02.352Z,101188.34
2022-12-06T14:02:47.654Z,101186.59
2022-12-06T14:05:46.993Z,101182.41
2022-12-06T14:08:16.369Z,101156.53
2022-12-06T14:10:45.516Z,101176.13
2022-12-06T14:13:19.926Z,101179.47
2022-12-06T14:15:54.061Z,101174.47
2022-12-06T14:18:26.495Z,101173.50
2022-12-06T14:20:57.779Z,101179.50
2022-12-06T14:23:31.063Z,101183.06
2022-12-06T14:26:21.056Z,101190.34
2022-12-06T14:28:52.614Z,101183.66
2022-12-06T14:31:29.523Z,101173.63
2022-12-06T14:33:59.414Z,101186.44
2022-12-06T14:36:32.523Z,101182.03
2022-12-06T14:39:09.212Z,101168.47
2022-12-06T14:41:52.800Z,101169.72
2022-12-06T14:44:37.007Z,101172.22
2022-12-06T14:47:09.138Z,101181.53
2022-12-06T14:49:51.415Z,101183.41
2022-12-06T14:52:23.542Z,101178.75
2022-12-06T14:54:53.800Z,101165.78
2022-12-06T14:57:31.424Z,101181.50
2022-12-06T15:00:18.026Z,101182.38
2022-12-06T15:03:20.957Z,101170.06
2022-12-06T15:06:21.121Z,101171.66
2022-12-06T15:08:55.449Z,101175.47
2022-12-06T15:11:49.349Z,101169.94
2022-12-06T15:14:21.574Z,101170.59
2022-12-06T15:17:00.053Z,101141.06
2022-12-06T15:19:32.930Z,101165.44
2022-12-06T15:22:04.239Z,101167.16
2022-12-06T15:24:33.786Z,101170.47
2022-12-06T15:27:14.731Z,101168.47
2022-12-06T15:29:44.422Z,101165.69
2022-12-06T15:32:16.156Z,101110.66
2022-12-06T15:34:47.899Z,101157.88
2022-12-06T15:40:09.809Z,101168.22
2022-12-06T15:42:38.983Z,101153.34
2022-12-06T15:45:12.210Z,101158.91
2022-12-06T15:47:49.347Z,101156.22
2022-12-06T15:50:20.699Z,101159.50
2022-12-06T15:52:59.921Z,101166.94
2022-12-06T15:55:29.457Z,101166.53
2022-12-06T15:57:58.574Z,101147.19
2022-12-06T16:00:27.907Z,101165.16
2022-12-06T16:02:57.204Z,101164.50
2022-12-06T16:05:28.505Z,101161.88
2022-12-06T16:07:58.099Z,101143.53
2022-12-06T16:11:10.438Z,101157.72
2022-12-06T16:13:27.566Z,101138.50
2022-12-06T16:15:56.731Z,101148.28
2022-12-06T16:18:26.178Z,101142.50
2022-12-06T16:20:57.408Z,101145.03
2022-12-06T16:24:12.658Z,101152.81
2022-12-06T16:26:38.918Z,101143.38
2022-12-06T16:29:11.900Z,101148.28
2022-12-06T16:31:46.761Z,101155.09
2022-12-06T16:34:16.611Z,101151.56
2022-12-06T16:37:04.561Z,101153.44
2022-12-06T16:39:35.769Z,101147.28
2022-12-06T16:42:06.315Z,101137.09
2022-12-06T16:44:50.470Z,101136.34
2022-12-06T16:49:51.897Z,101142.13
2022-12-06T16:52:28.176Z,101141.38
2022-12-06T16:54:57.501Z,101140.25
2022-12-06T16:57:26.735Z,101142.78
2022-12-06T17:00:01.583Z,101145.53
2022-12-06T17:02:34.681Z,101114.38
2022-12-06T17:05:20.849Z,101148.56
2022-12-06T17:07:52.970Z,101111.13
2022-12-06T17:10:27.319Z,101145.31
2022-12-06T17:12:56.430Z,101127.09
2022-12-06T17:15:25.809Z,101138.78
2022-12-06T17:17:55.268Z,101148.22
2022-12-06T17:20:24.473Z,101146.22
2022-12-06T17:22:56.579Z,101139.28
2022-12-06T17:25:25.760Z,101137.16
2022-12-06T17:27:54.891Z,101140.34
2022-12-06T17:30:24.305Z,101130.91
2022-12-06T17:32:54.018Z,101137.81
2022-12-06T17:35:29.806Z,101129.88
2022-12-06T17:38:01.703Z,101093.84
2022-12-06T17:40:33.942Z,101129.63
2022-12-06T17:43:06.448Z,101131.41
2022-12-06T17:45:36.152Z,101130.91
2022-12-06T17:48:05.769Z,101127.25
2022-12-06T17:50:35.305Z,101132.28
2022-12-06T17:53:11.663Z,101135.72
2022-12-06T17:55:40.947Z,101130.16
2022-12-06T17:58:10.079Z,101118.13
2022-12-06T18:00:39.434Z,101126.03
2022-12-06T18:03:08.660Z,101124.13
2022-12-06T18:05:39.195Z,101121.00
2022-12-06T18:08:10.630Z,101101.16
2022-12-06T18:10:47.833Z,101118.50
2022-12-06T18:13:17.270Z,101121.75
2022-12-06T18:15:46.396Z,101125.13
2022-12-06T18:18:15.495Z,101105.41
2022-12-06T18:20:45.472Z,101097.75
2022-12-06T18:23:16.804Z,101120.47
2022-12-06T18:25:46.018Z,101115.22
2022-12-06T18:28:15.214Z,101104.81
2022-12-06T18:30:44.637Z,101120.47
2022-12-06T18:33:17.657Z,101118.75
2022-12-06T18:35:52.003Z,101116.47
2022-12-06T18:38:29.091Z,101105.94
2022-12-06T18:41:04.507Z,101122.00
2022-12-06T18:43:34.771Z,101117.09
2022-12-06T18:46:10.825Z,101119.25
2022-12-06T18:48:47.393Z,101109.69
2022-12-06T18:51:19.180Z,101106.91
2022-12-06T18:53:52.535Z,101112.84
2022-12-06T18:56:29.689Z,101119.97
2022-12-06T18:59:01.106Z,101111.44
2022-12-06T19:01:33.389Z,101107.28
2022-12-06T19:04:04.705Z,101110.97
2022-12-06T19:06:35.608Z,101103.28
2022-12-06T19:09:10.975Z,101102.75
2022-12-06T19:11:41.649Z,101103.53
2022-12-06T19:14:11.376Z,101094.72
2022-12-06T19:19:26.066Z,101075.66
2022-12-06T19:22:01.613Z,101098.25
2022-12-06T19:24:33.627Z,101099.13
2022-12-06T19:27:08.554Z,101094.72
2022-12-06T19:29:37.850Z,101086.69
2022-12-06T19:32:07.758Z,101093.38
2022-12-06T19:34:36.953Z,101087.97
2022-12-06T19:37:06.109Z,101064.22
2022-12-06T19:39:38.141Z,101069.84
2022-12-06T19:42:20.439Z,101076.78
2022-12-06T19:44:50.131Z,101079.41
2022-12-06T19:47:19.757Z,101081.53
2022-12-06T19:49:49.195Z,101085.19
2022-12-06T19:52:26.570Z,101071.78
2022-12-06T19:55:01.898Z,101085.44
2022-12-06T19:57:39.522Z,101088.50
2022-12-06T20:00:10.531Z,101081.31
2022-12-06T20:02:41.783Z,101056.53
2022-12-06T20:05:11.458Z,101083.03
2022-12-06T20:07:40.697Z,101083.94
2022-12-06T20:10:13.211Z,101089.56
2022-12-06T20:12:42.621Z,101081.19
2022-12-06T20:15:12.904Z,101080.53
2022-12-06T20:17:42.232Z,101076.91
2022-12-06T20:20:11.949Z,101072.25
2022-12-06T20:22:41.416Z,101079.41
2022-12-06T20:25:12.802Z,101076.16
2022-12-06T20:27:55.501Z,101085.44
2022-12-06T20:30:26.100Z,101075.50
2022-12-06T20:32:55.622Z,101079.03
2022-12-06T20:35:26.229Z,101083.31
2022-12-06T20:37:55.693Z,101057.91
2022-12-06T20:40:31.258Z,101076.03
2022-12-06T20:45:36.194Z,101080.53
2022-12-06T20:48:05.832Z,101075.25
2022-12-06T20:50:35.103Z,101082.53
2022-12-06T20:53:09.346Z,101080.38
2022-12-06T20:55:41.178Z,101077.88
2022-12-06T20:58:10.038Z,101082.16
2022-12-06T21:00:42.435Z,101076.50
2022-12-06T21:05:59.000Z,101081.75
2022-12-06T21:08:28.353Z,101086.25
2022-12-06T21:13:41.496Z,101074.19
2022-12-06T21:16:17.844Z,101075.41
2022-12-06T21:18:49.037Z,101071.38
2022-12-06T21:21:25.639Z,101072.53
2022-12-06T21:23:54.962Z,101073.66
2022-12-06T21:26:26.015Z,101043.59
2022-12-06T21:29:00.718Z,101062.31
2022-12-06T21:31:31.289Z,101083.38
2022-12-06T21:34:01.099Z,101083.25
2022-12-06T21:36:36.238Z,101071.34
2022-12-06T21:41:43.171Z,101064.09
2022-12-06T21:44:12.627Z,101080.75
2022-12-06T21:46:42.371Z,101062.28
2022-12-06T21:49:12.466Z,101073.59
2022-12-06T21:51:41.613Z,101056.63
2022-12-06T21:54:15.895Z,101040.50
2022-12-06T21:56:47.044Z,101071.78
2022-12-06T21:59:16.327Z,101064.28
2022-12-06T22:01:45.555Z,101077.34
2022-12-06T22:04:14.699Z,101081.06
2022-12-06T22:06:43.910Z,101079.06
2022-12-06T22:09:13.193Z,101084.06
2022-12-06T22:11:42.540Z,101069.63
2022-12-06T22:14:18.792Z,101049.13
2022-12-06T22:16:48.073Z,101071.47
2022-12-06T22:19:17.256Z,101074.13
2022-12-06T22:21:47.485Z,101083.50
2022-12-06T22:24:16.676Z,101034.78
2022-12-06T22:26:45.912Z,101078.50
2022-12-06T22:29:17.281Z,101049.59
2022-12-06T22:31:46.529Z,101077.28
2022-12-06T22:34:15.724Z,101082.56
2022-12-06T22:36:50.761Z,101078.41
2022-12-06T22:39:20.436Z,101080.31
2022-12-06T22:41:49.529Z,101078.78
2022-12-06T22:44:30.831Z,101065.09
2022-12-06T22:47:00.086Z,101072.78
2022-12-06T22:49:29.555Z,101071.03
2022-12-06T22:54:34.154Z,101068.03
2022-12-06T22:57:03.353Z,101079.38
2022-12-06T22:59:34.589Z,101067.78
2022-12-06T23:02:03.905Z,101093.59
2022-12-06T23:04:33.197Z,101083.31
2022-12-06T23:07:02.782Z,101079.78
2022-12-06T23:09:31.910Z,101079.78
2022-12-06T23:12:01.079Z,101080.53
2022-12-06T23:14:35.397Z,101083.50
2022-12-06T23:17:06.563Z,101083.25
2022-12-06T23:19:35.923Z,101085.03
2022-12-06T23:22:05.133Z,101088.91
2022-12-06T23:24:34.398Z,101090.78
2022-12-06T23:27:03.530Z,101089.31
2022-12-06T23:29:33.045Z,101093.50
2022-12-06T23:32:10.100Z,101084.44
2022-12-06T23:34:41.666Z,101078.41
2022-12-06T23:37:20.985Z,101085.84
2022-12-06T23:39:50.216Z,101085.19
2022-12-06T23:42:19.373Z,101083.22
2022-12-06T23:44:53.922Z,101079.84
2022-12-06T23:47:23.252Z,101087.50
2022-12-06T23:50:04.424Z,101083.97
2022-12-06T23:52:33.864Z,101079.38
2022-12-06T23:55:03.049Z,101074.13
2022-12-06T23:57:37.684Z,101069.13
